TFD244 VVPQ-VVTS
Flight info
| Callsign | TFD244 |
|---|---|
| Flight time | 0h 40m |
| Altitude | 31000 |
| Route | PQU W8 RG W16 TRN ENPAS ENPA7D |
| Aircraft | B739/M-SDE2E3FGHIRWXY/LB1 |
Departure
| Time | 2026-05-07 15:21 |
|---|---|
| Airport | Phú Quốc International Airport (VVPQ) |
Arrival
| Time | 2026-05-07 16:02 |
|---|---|
| Airport | Tan Son Nhat International Airport (VVTS) |
| Time | Latitude | Longitude | Altitude | Speed | Heading |
|---|---|---|---|---|---|
| 2026-05-07 14:49 | 10.16425 | 103.99716 | 50 ft | 0 kts | 185° |
| 2026-05-07 14:50 | 10.16412 | 103.99852 | 50 ft | 0 kts | 185° |
| 2026-05-07 15:09 | 10.16413 | 103.99852 | 50 ft | 0 kts | 185° |
| 2026-05-07 15:09 | 10.16419 | 103.99853 | 49 ft | 2 kts | 186° |
| 2026-05-07 15:09 | 10.16434 | 103.99854 | 49 ft | 2 kts | 185° |
| 2026-05-07 15:09 | 10.16449 | 103.99856 | 49 ft | 2 kts | 186° |
| 2026-05-07 15:10 | 10.16464 | 103.99857 | 49 ft | 2 kts | 185° |
| 2026-05-07 15:10 | 10.16473 | 103.99858 | 48 ft | 2 kts | 185° |
| 2026-05-07 15:10 | 10.16488 | 103.99856 | 48 ft | 2 kts | 154° |
| 2026-05-07 15:10 | 10.16500 | 103.99847 | 48 ft | 2 kts | 131° |
| 2026-05-07 15:11 | 10.16508 | 103.99834 | 48 ft | 2 kts | 108° |
| 2026-05-07 15:11 | 10.16510 | 103.99825 | 48 ft | 1 kts | 93° |
| 2026-05-07 15:11 | 10.16510 | 103.99821 | 48 ft | 0 kts | 95° |
| 2026-05-07 15:13 | 10.16509 | 103.99834 | 48 ft | 5 kts | 96° |
| 2026-05-07 15:13 | 10.16503 | 103.99890 | 48 ft | 8 kts | 96° |
| 2026-05-07 15:13 | 10.16498 | 103.99947 | 48 ft | 7 kts | 96° |
| 2026-05-07 15:14 | 10.16493 | 103.99995 | 48 ft | 6 kts | 96° |
| 2026-05-07 15:14 | 10.16488 | 104.00041 | 48 ft | 7 kts | 95° |
| 2026-05-07 15:14 | 10.16484 | 104.00124 | 48 ft | 16 kts | 74° |
| 2026-05-07 15:14 | 10.16598 | 104.00160 | 46 ft | 18 kts | 6° |
| 2026-05-07 15:15 | 10.16718 | 104.00188 | 45 ft | 16 kts | 62° |
| 2026-05-07 15:15 | 10.16714 | 104.00299 | 47 ft | 14 kts | 95° |
| 2026-05-07 15:15 | 10.16704 | 104.00394 | 48 ft | 13 kts | 96° |
| 2026-05-07 15:15 | 10.16691 | 104.00517 | 48 ft | 20 kts | 96° |
| 2026-05-07 15:16 | 10.16679 | 104.00643 | 51 ft | 15 kts | 95° |
| 2026-05-07 15:16 | 10.16712 | 104.00729 | 52 ft | 13 kts | 23° |
| 2026-05-07 15:16 | 10.16799 | 104.00720 | 52 ft | 12 kts | 350° |
| 2026-05-07 15:16 | 10.16851 | 104.00671 | 51 ft | 3 kts | 275° |
| 2026-05-07 15:17 | 10.16851 | 104.00670 | 51 ft | 0 kts | 275° |
| 2026-05-07 15:20 | 10.16853 | 104.00646 | 51 ft | 12 kts | 275° |
| 2026-05-07 15:20 | 10.16888 | 104.00299 | 48 ft | 86 kts | 276° |
| 2026-05-07 15:20 | 10.16971 | 103.99467 | 38 ft | 148 kts | 276° |
| 2026-05-07 15:21 | 10.17079 | 103.98300 | 345 ft | 172 kts | 275° |
| 2026-05-07 15:21 | 10.17180 | 103.97096 | 969 ft | 179 kts | 275° |
| 2026-05-07 15:21 | 10.17290 | 103.95787 | 1463 ft | 196 kts | 275° |
| 2026-05-07 15:21 | 10.17430 | 103.94353 | 1944 ft | 213 kts | 275° |
| 2026-05-07 15:22 | 10.17462 | 103.92808 | 2422 ft | 229 kts | 259° |
| 2026-05-07 15:22 | 10.16758 | 103.91300 | 2870 ft | 246 kts | 226° |
| 2026-05-07 15:22 | 10.15334 | 103.90318 | 3372 ft | 257 kts | 197° |
| 2026-05-07 15:22 | 10.13532 | 103.90139 | 3872 ft | 268 kts | 168° |
| 2026-05-07 15:23 | 10.11829 | 103.90841 | 4598 ft | 267 kts | 141° |
| 2026-05-07 15:23 | 10.10656 | 103.92268 | 5410 ft | 264 kts | 113° |
| 2026-05-07 15:23 | 10.10296 | 103.94051 | 6213 ft | 262 kts | 86° |
| 2026-05-07 15:23 | 10.10778 | 103.95806 | 6969 ft | 266 kts | 63° |
| 2026-05-07 15:24 | 10.11783 | 103.97398 | 7751 ft | 270 kts | 55° |
| 2026-05-07 15:24 | 10.12923 | 103.98925 | 8523 ft | 275 kts | 53° |
| 2026-05-07 15:24 | 10.14107 | 104.00440 | 9316 ft | 279 kts | 52° |
| 2026-05-07 15:24 | 10.15322 | 104.01984 | 10142 ft | 282 kts | 52° |
| 2026-05-07 15:25 | 10.16547 | 104.03586 | 10657 ft | 297 kts | 54° |
| 2026-05-07 15:25 | 10.17575 | 104.05448 | 11112 ft | 312 kts | 73° |
| 2026-05-07 15:25 | 10.17710 | 104.07685 | 11532 ft | 330 kts | 98° |
| 2026-05-07 15:25 | 10.16978 | 104.09976 | 11962 ft | 347 kts | 111° |
| 2026-05-07 15:26 | 10.15943 | 104.12215 | 12377 ft | 362 kts | 115° |
| 2026-05-07 15:26 | 10.14863 | 104.14560 | 13074 ft | 366 kts | 109° |
| 2026-05-07 15:26 | 10.14099 | 104.17033 | 13782 ft | 370 kts | 103° |
| 2026-05-07 15:26 | 10.13511 | 104.19578 | 14467 ft | 375 kts | 101° |
| 2026-05-07 15:27 | 10.12985 | 104.22147 | 15163 ft | 379 kts | 101° |
| 2026-05-07 15:27 | 10.12492 | 104.24805 | 15912 ft | 382 kts | 99° |
| 2026-05-07 15:27 | 10.12030 | 104.27462 | 16553 ft | 387 kts | 99° |
| 2026-05-07 15:27 | 10.11563 | 104.30157 | 17268 ft | 390 kts | 99° |
| 2026-05-07 15:28 | 10.11085 | 104.32857 | 17890 ft | 395 kts | 100° |
| 2026-05-07 15:28 | 10.10588 | 104.35589 | 18503 ft | 399 kts | 100° |
| 2026-05-07 15:28 | 10.10075 | 104.38361 | 19095 ft | 404 kts | 100° |
| 2026-05-07 15:28 | 10.09549 | 104.41177 | 19693 ft | 407 kts | 100° |
| 2026-05-07 15:29 | 10.09016 | 104.44019 | 20234 ft | 413 kts | 100° |
| 2026-05-07 15:29 | 10.08480 | 104.46866 | 20838 ft | 415 kts | 100° |
| 2026-05-07 15:29 | 10.07932 | 104.49783 | 21357 ft | 420 kts | 100° |
| 2026-05-07 15:29 | 10.07387 | 104.52679 | 21883 ft | 424 kts | 100° |
| 2026-05-07 15:30 | 10.06834 | 104.55616 | 22426 ft | 427 kts | 100° |
| 2026-05-07 15:30 | 10.06277 | 104.58581 | 22797 ft | 431 kts | 100° |
| 2026-05-07 15:30 | 10.05716 | 104.61561 | 22840 ft | 433 kts | 100° |
| 2026-05-07 15:30 | 10.05152 | 104.64551 | 22842 ft | 431 kts | 100° |
| 2026-05-07 15:31 | 10.04587 | 104.67549 | 22842 ft | 429 kts | 100° |
| 2026-05-07 15:31 | 10.04032 | 104.70491 | 22842 ft | 430 kts | 100° |
| 2026-05-07 15:31 | 10.03468 | 104.73476 | 22841 ft | 428 kts | 100° |
| 2026-05-07 15:31 | 10.02909 | 104.76437 | 22842 ft | 429 kts | 100° |
| 2026-05-07 15:32 | 10.02348 | 104.79408 | 22840 ft | 428 kts | 100° |
| 2026-05-07 15:32 | 10.01787 | 104.82376 | 22840 ft | 428 kts | 100° |
| 2026-05-07 15:32 | 10.01228 | 104.85332 | 22840 ft | 430 kts | 100° |
| 2026-05-07 15:32 | 10.00665 | 104.88309 | 22841 ft | 430 kts | 100° |
| 2026-05-07 15:33 | 10.00103 | 104.91279 | 22843 ft | 430 kts | 100° |
| 2026-05-07 15:33 | 9.99540 | 104.94250 | 22839 ft | 430 kts | 100° |
| 2026-05-07 15:33 | 9.98977 | 104.97226 | 22835 ft | 430 kts | 100° |
| 2026-05-07 15:33 | 9.98412 | 105.00205 | 22831 ft | 430 kts | 100° |
| 2026-05-07 15:34 | 9.97848 | 105.03181 | 22827 ft | 430 kts | 100° |
| 2026-05-07 15:34 | 9.97285 | 105.06149 | 22824 ft | 430 kts | 100° |
| 2026-05-07 15:34 | 9.96746 | 105.09134 | 22824 ft | 429 kts | 98° |
| 2026-05-07 15:34 | 9.96429 | 105.12123 | 22823 ft | 429 kts | 92° |
| 2026-05-07 15:35 | 9.96499 | 105.15170 | 22823 ft | 429 kts | 84° |
| 2026-05-07 15:35 | 9.96902 | 105.18150 | 22823 ft | 429 kts | 80° |
| 2026-05-07 15:35 | 9.97475 | 105.21130 | 22823 ft | 429 kts | 78° |
| 2026-05-07 15:35 | 9.98117 | 105.24069 | 22822 ft | 429 kts | 77° |
| 2026-05-07 15:36 | 9.98793 | 105.27029 | 22822 ft | 430 kts | 77° |
| 2026-05-07 15:36 | 9.99472 | 105.29977 | 22824 ft | 431 kts | 77° |
| 2026-05-07 15:36 | 10.00142 | 105.32913 | 22828 ft | 430 kts | 77° |
| 2026-05-07 15:36 | 10.00814 | 105.35898 | 22833 ft | 430 kts | 77° |
| 2026-05-07 15:37 | 10.01469 | 105.38841 | 22839 ft | 429 kts | 77° |
| 2026-05-07 15:37 | 10.02121 | 105.41805 | 22842 ft | 430 kts | 78° |
| 2026-05-07 15:37 | 10.02765 | 105.44749 | 22843 ft | 430 kts | 78° |
| 2026-05-07 15:37 | 10.03407 | 105.47695 | 22843 ft | 429 kts | 78° |
| 2026-05-07 15:38 | 10.04048 | 105.50643 | 22843 ft | 429 kts | 78° |
| 2026-05-07 15:38 | 10.04692 | 105.53612 | 22845 ft | 430 kts | 78° |
| 2026-05-07 15:38 | 10.05328 | 105.56551 | 22845 ft | 430 kts | 78° |
| 2026-05-07 15:38 | 10.05975 | 105.59541 | 22845 ft | 430 kts | 78° |
| 2026-05-07 15:39 | 10.06610 | 105.62479 | 22844 ft | 430 kts | 78° |
| 2026-05-07 15:39 | 10.07257 | 105.65437 | 22846 ft | 433 kts | 77° |
| 2026-05-07 15:39 | 10.08059 | 105.68440 | 22846 ft | 446 kts | 72° |
| 2026-05-07 15:39 | 10.09271 | 105.71381 | 22845 ft | 458 kts | 63° |
| 2026-05-07 15:40 | 10.10976 | 105.74150 | 22844 ft | 465 kts | 56° |
| 2026-05-07 15:40 | 10.12901 | 105.76802 | 22846 ft | 464 kts | 53° |
| 2026-05-07 15:40 | 10.14895 | 105.79356 | 22846 ft | 464 kts | 52° |
| 2026-05-07 15:40 | 10.16937 | 105.81894 | 22846 ft | 465 kts | 52° |
| 2026-05-07 15:41 | 10.18989 | 105.84425 | 22845 ft | 464 kts | 51° |
| 2026-05-07 15:41 | 10.21043 | 105.86970 | 22845 ft | 465 kts | 52° |
| 2026-05-07 15:41 | 10.23084 | 105.89519 | 22844 ft | 464 kts | 52° |
| 2026-05-07 15:41 | 10.25124 | 105.92085 | 22844 ft | 465 kts | 52° |
| 2026-05-07 15:42 | 10.27119 | 105.94613 | 22844 ft | 464 kts | 52° |
| 2026-05-07 15:42 | 10.29144 | 105.97191 | 22844 ft | 465 kts | 52° |
| 2026-05-07 15:42 | 10.31152 | 105.99756 | 22843 ft | 465 kts | 52° |
| 2026-05-07 15:42 | 10.33173 | 106.02344 | 22843 ft | 465 kts | 52° |
| 2026-05-07 15:43 | 10.35179 | 106.04916 | 22844 ft | 465 kts | 52° |
| 2026-05-07 15:43 | 10.37186 | 106.07493 | 22843 ft | 464 kts | 52° |
| 2026-05-07 15:43 | 10.39188 | 106.10066 | 22843 ft | 465 kts | 53° |
| 2026-05-07 15:43 | 10.41168 | 106.12610 | 22843 ft | 464 kts | 52° |
| 2026-05-07 15:44 | 10.43166 | 106.15177 | 22842 ft | 456 kts | 53° |
| 2026-05-07 15:44 | 10.45087 | 106.17645 | 22841 ft | 436 kts | 52° |
| 2026-05-07 15:44 | 10.46951 | 106.20039 | 22465 ft | 426 kts | 53° |
| 2026-05-07 15:44 | 10.48758 | 106.22362 | 21976 ft | 420 kts | 53° |
| 2026-05-07 15:45 | 10.50557 | 106.24678 | 21400 ft | 416 kts | 53° |
| 2026-05-07 15:45 | 10.52352 | 106.26990 | 20843 ft | 412 kts | 53° |
| 2026-05-07 15:45 | 10.54115 | 106.29260 | 20247 ft | 407 kts | 53° |
| 2026-05-07 15:45 | 10.55838 | 106.31480 | 19477 ft | 401 kts | 53° |
| 2026-05-07 15:46 | 10.59247 | 106.35874 | 17842 ft | 391 kts | 53° |
| 2026-05-07 15:46 | 10.60928 | 106.38043 | 16998 ft | 387 kts | 53° |
| 2026-05-07 15:46 | 10.62521 | 106.40192 | 16320 ft | 381 kts | 57° |
| 2026-05-07 15:47 | 10.64041 | 106.42361 | 15727 ft | 377 kts | 54° |
| 2026-05-07 15:47 | 10.65477 | 106.44544 | 14983 ft | 371 kts | 65° |
| 2026-05-07 15:47 | 10.66059 | 106.47048 | 14207 ft | 363 kts | 91° |
| 2026-05-07 15:47 | 10.65480 | 106.49445 | 13811 ft | 348 kts | 116° |
| 2026-05-07 15:48 | 10.63995 | 106.51369 | 13263 ft | 348 kts | 135° |
| 2026-05-07 15:48 | 10.62080 | 106.52969 | 12710 ft | 364 kts | 140° |
| 2026-05-07 15:48 | 10.60055 | 106.54516 | 12144 ft | 366 kts | 138° |
| 2026-05-07 15:48 | 10.58206 | 106.56285 | 11585 ft | 360 kts | 129° |
| 2026-05-07 15:49 | 10.56766 | 106.58301 | 11076 ft | 351 kts | 117° |
| 2026-05-07 15:49 | 10.55935 | 106.60566 | 10724 ft | 337 kts | 97° |
| 2026-05-07 15:49 | 10.55951 | 106.62875 | 10507 ft | 322 kts | 79° |
| 2026-05-07 15:49 | 10.56504 | 106.65031 | 10395 ft | 306 kts | 72° |
| 2026-05-07 15:50 | 10.57194 | 106.67039 | 10279 ft | 292 kts | 70° |
| 2026-05-07 15:50 | 10.57873 | 106.68909 | 10162 ft | 280 kts | 69° |
| 2026-05-07 15:50 | 10.58543 | 106.70740 | 10044 ft | 269 kts | 69° |
| 2026-05-07 15:50 | 10.59187 | 106.72506 | 9808 ft | 263 kts | 69° |
| 2026-05-07 15:51 | 10.59883 | 106.74220 | 9495 ft | 261 kts | 65° |
| 2026-05-07 15:51 | 10.60657 | 106.75852 | 9228 ft | 256 kts | 62° |
| 2026-05-07 15:51 | 10.61530 | 106.77426 | 8913 ft | 255 kts | 59° |
| 2026-05-07 15:51 | 10.62437 | 106.78973 | 8599 ft | 253 kts | 57° |
| 2026-05-07 15:52 | 10.63432 | 106.80441 | 8296 ft | 251 kts | 52° |
| 2026-05-07 15:52 | 10.64525 | 106.81797 | 7980 ft | 250 kts | 50° |
| 2026-05-07 15:52 | 10.65705 | 106.83102 | 7670 ft | 248 kts | 44° |
| 2026-05-07 15:52 | 10.67047 | 106.84195 | 7363 ft | 246 kts | 36° |
| 2026-05-07 15:53 | 10.68471 | 106.85125 | 7070 ft | 245 kts | 31° |
| 2026-05-07 15:53 | 10.69966 | 106.85963 | 6761 ft | 245 kts | 29° |
| 2026-05-07 15:53 | 10.71490 | 106.86735 | 6451 ft | 244 kts | 26° |
| 2026-05-07 15:53 | 10.73067 | 106.87405 | 6142 ft | 241 kts | 21° |
| 2026-05-07 15:54 | 10.74629 | 106.87950 | 5847 ft | 239 kts | 20° |
| 2026-05-07 15:54 | 10.76229 | 106.88473 | 5544 ft | 237 kts | 19° |
| 2026-05-07 15:54 | 10.77794 | 106.88944 | 5243 ft | 235 kts | 15° |
| 2026-05-07 15:54 | 10.79433 | 106.89192 | 4937 ft | 235 kts | 6° |
| 2026-05-07 15:55 | 10.81060 | 106.89174 | 4646 ft | 235 kts | 360° |
| 2026-05-07 15:55 | 10.82695 | 106.89064 | 4362 ft | 233 kts | 359° |
| 2026-05-07 15:55 | 10.84296 | 106.88924 | 4228 ft | 224 kts | 356° |
| 2026-05-07 15:55 | 10.85792 | 106.88702 | 4179 ft | 209 kts | 354° |
| 2026-05-07 15:56 | 10.87176 | 106.88418 | 4108 ft | 197 kts | 350° |
| 2026-05-07 15:56 | 10.88474 | 106.88080 | 4043 ft | 184 kts | 349° |
| 2026-05-07 15:56 | 10.89597 | 106.87504 | 3969 ft | 188 kts | 315° |
| 2026-05-07 15:56 | 10.90053 | 106.86259 | 3834 ft | 197 kts | 266° |
| 2026-05-07 15:57 | 10.89620 | 106.84951 | 3602 ft | 193 kts | 239° |
| 2026-05-07 15:57 | 10.88958 | 106.83761 | 3337 ft | 192 kts | 238° |
| 2026-05-07 15:57 | 10.88380 | 106.82558 | 3114 ft | 190 kts | 245° |
| 2026-05-07 15:57 | 10.87917 | 106.81303 | 2894 ft | 188 kts | 247° |
| 2026-05-07 15:58 | 10.87486 | 106.80064 | 2651 ft | 181 kts | 248° |
| 2026-05-07 15:58 | 10.87132 | 106.78841 | 2475 ft | 178 kts | 252° |
| 2026-05-07 15:58 | 10.86828 | 106.77621 | 2466 ft | 179 kts | 252° |
| 2026-05-07 15:58 | 10.86523 | 106.76386 | 2317 ft | 185 kts | 251° |
| 2026-05-07 15:59 | 10.86141 | 106.75198 | 2081 ft | 172 kts | 245° |
| 2026-05-07 15:59 | 10.85668 | 106.74103 | 1730 ft | 168 kts | 239° |
| 2026-05-07 15:59 | 10.85154 | 106.73040 | 1384 ft | 164 kts | 239° |
| 2026-05-07 15:59 | 10.84726 | 106.72048 | 1134 ft | 158 kts | 245° |
| 2026-05-07 16:00 | 10.84321 | 106.71040 | 922 ft | 149 kts | 242° |
| 2026-05-07 16:00 | 10.83941 | 106.70064 | 749 ft | 149 kts | 245° |
| 2026-05-07 16:00 | 10.83549 | 106.69113 | 538 ft | 148 kts | 248° |
| 2026-05-07 16:00 | 10.83193 | 106.68154 | 421 ft | 140 kts | 244° |
| 2026-05-07 16:01 | 10.82823 | 106.67211 | 245 ft | 146 kts | 247° |
| 2026-05-07 16:01 | 10.82468 | 106.66255 | 78 ft | 143 kts | 248° |
| 2026-05-07 16:01 | 10.82131 | 106.65357 | 32 ft | 122 kts | 243° |
| 2026-05-07 16:01 | 10.81867 | 106.64694 | 28 ft | 71 kts | 250° |
| 2026-05-07 16:02 | 10.81743 | 106.64429 | 25 ft | 24 kts | 225° |
| 2026-05-07 16:02 | 10.81650 | 106.64340 | 25 ft | 14 kts | 215° |
| 2026-05-07 16:02 | 10.81558 | 106.64307 | 25 ft | 13 kts | 180° |
| 2026-05-07 16:02 | 10.81505 | 106.64311 | 25 ft | 0 kts | 170° |
| 2026-05-07 16:03 | 10.81497 | 106.64312 | 25 ft | 2 kts | 170° |
| 2026-05-07 16:03 | 10.81447 | 106.64326 | 25 ft | 12 kts | 158° |
| 2026-05-07 16:03 | 10.81335 | 106.64370 | 25 ft | 20 kts | 160° |
| 2026-05-07 16:03 | 10.81249 | 106.64438 | 25 ft | 15 kts | 82° |
| 2026-05-07 16:04 | 10.81284 | 106.64536 | 25 ft | 14 kts | 70° |
| 2026-05-07 16:04 | 10.81325 | 106.64645 | 25 ft | 19 kts | 70° |
| 2026-05-07 16:04 | 10.81377 | 106.64783 | 25 ft | 22 kts | 67° |
| 2026-05-07 16:04 | 10.81438 | 106.64942 | 25 ft | 24 kts | 70° |
| 2026-05-07 16:05 | 10.81497 | 106.65095 | 25 ft | 23 kts | 71° |
| 2026-05-07 16:05 | 10.81551 | 106.65243 | 27 ft | 20 kts | 70° |
| 2026-05-07 16:05 | 10.81598 | 106.65368 | 28 ft | 11 kts | 69° |
| 2026-05-07 16:05 | 10.81620 | 106.65434 | 28 ft | 5 kts | 72° |
| 2026-05-07 16:06 | 10.81650 | 106.65503 | 28 ft | 14 kts | 70° |
| 2026-05-07 16:06 | 10.81683 | 106.65595 | 28 ft | 13 kts | 70° |
| 2026-05-07 16:06 | 10.81718 | 106.65698 | 28 ft | 18 kts | 79° |
| 2026-05-07 16:06 | 10.81692 | 106.65823 | 28 ft | 17 kts | 110° |
| 2026-05-07 16:07 | 10.81699 | 106.65942 | 28 ft | 16 kts | 69° |
| 2026-05-07 16:07 | 10.81741 | 106.66052 | 28 ft | 16 kts | 66° |
| 2026-05-07 16:07 | 10.81780 | 106.66156 | 28 ft | 15 kts | 69° |
| 2026-05-07 16:07 | 10.81817 | 106.66256 | 28 ft | 14 kts | 69° |
| 2026-05-07 16:08 | 10.81837 | 106.66341 | 28 ft | 10 kts | 116° |
| 2026-05-07 16:08 | 10.81785 | 106.66363 | 29 ft | 5 kts | 162° |
| 2026-05-07 16:08 | 10.81755 | 106.66375 | 30 ft | 3 kts | 159° |
| 2026-05-07 16:08 | 10.81750 | 106.66376 | 30 ft | 0 kts | 159° |